createdAt,value
2023-05-14T00:00:35.807Z,7.416
2023-05-14T00:02:36.150Z,7.221
2023-05-14T00:03:36.541Z,7.154
2023-05-14T00:04:36.123Z,7.077
2023-05-14T00:07:34.667Z,6.938
2023-05-14T00:08:34.849Z,6.997
2023-05-14T00:09:34.996Z,7.002
2023-05-14T00:10:35.572Z,7.229
2023-05-14T00:12:35.071Z,7.237
2023-05-14T00:13:35.830Z,7.242
2023-05-14T00:14:34.987Z,7.344
2023-05-14T00:15:38.165Z,7.381
2023-05-14T00:16:36.204Z,7.368
2023-05-14T00:17:35.568Z,7.320
2023-05-14T00:20:35.113Z,7.250
2023-05-14T00:21:35.486Z,7.224
2023-05-14T00:22:35.745Z,7.194
2023-05-14T00:23:35.042Z,7.181
2023-05-14T00:24:35.698Z,7.103
2023-05-14T00:25:34.845Z,7.165
2023-05-14T00:26:35.142Z,7.103
2023-05-14T00:27:35.316Z,7.039
2023-05-14T00:28:35.625Z,7.077
2023-05-14T00:29:34.862Z,7.013
2023-05-14T00:30:35.252Z,6.978
2023-05-14T00:31:35.555Z,7.007
2023-05-14T00:32:35.020Z,6.858
2023-05-14T00:33:35.452Z,6.917
2023-05-14T00:34:34.762Z,6.949
2023-05-14T00:35:34.961Z,7.071
2023-05-14T00:36:35.124Z,6.935
2023-05-14T00:37:35.785Z,6.844
2023-05-14T00:39:35.182Z,7.058
2023-05-14T00:40:36.023Z,7.106
2023-05-14T00:41:36.075Z,7.010
2023-05-14T00:42:35.338Z,7.039
2023-05-14T00:43:35.525Z,7.021
2023-05-14T00:44:34.714Z,7.029
2023-05-14T00:45:35.087Z,6.973
2023-05-14T00:46:35.668Z,6.959
2023-05-14T00:47:35.236Z,6.965
2023-05-14T00:48:35.705Z,6.847
2023-05-14T00:49:35.948Z,6.836
2023-05-14T00:50:35.463Z,6.903
2023-05-14T00:52:35.251Z,6.879
2023-05-14T00:53:35.442Z,6.884
2023-05-14T00:54:35.763Z,6.906
2023-05-14T00:55:35.300Z,6.911
2023-05-14T00:56:35.757Z,6.903
2023-05-14T00:57:34.931Z,6.770
2023-05-14T00:58:35.082Z,6.810
2023-05-14T00:59:35.639Z,6.812
2023-05-14T01:00:35.010Z,6.743
2023-05-14T01:01:35.895Z,6.615
2023-05-14T01:02:36.081Z,6.671
2023-05-14T01:03:36.275Z,6.690
2023-05-14T01:04:35.010Z,6.751
2023-05-14T01:06:35.444Z,6.756
2023-05-14T01:07:35.678Z,6.772
2023-05-14T01:08:34.905Z,6.826
2023-05-14T01:09:35.120Z,6.884
2023-05-14T01:10:35.743Z,6.882
2023-05-14T01:11:34.950Z,7.002
2023-05-14T01:12:35.107Z,7.087
2023-05-14T01:13:35.695Z,7.109
2023-05-14T01:14:34.791Z,7.242
2023-05-14T01:15:35.161Z,7.237
2023-05-14T01:16:35.690Z,7.266
2023-05-14T01:17:35.326Z,7.229
2023-05-14T01:18:35.199Z,7.264
2023-05-14T01:19:35.567Z,7.218
2023-05-14T01:21:35.441Z,7.389
2023-05-14T01:22:35.671Z,7.317
2023-05-14T01:23:34.854Z,7.320
2023-05-14T01:24:35.167Z,7.435
2023-05-14T01:25:35.787Z,7.464
2023-05-14T01:26:35.086Z,7.392
2023-05-14T01:27:35.287Z,7.493
2023-05-14T01:28:35.503Z,7.483
2023-05-14T01:29:34.678Z,7.451
2023-05-14T01:30:36.064Z,7.443
2023-05-14T01:31:35.442Z,7.467
2023-05-14T01:33:35.395Z,7.632
2023-05-14T01:34:35.677Z,7.675
2023-05-14T01:35:34.864Z,7.643
2023-05-14T01:36:35.112Z,7.624
2023-05-14T01:37:35.763Z,7.613
2023-05-14T01:38:34.911Z,7.584
2023-05-14T01:39:35.147Z,7.651
2023-05-14T01:40:35.521Z,7.656
2023-05-14T01:41:34.722Z,7.635
2023-05-14T01:42:34.976Z,7.675
2023-05-14T01:43:35.453Z,7.726
2023-05-14T01:44:35.671Z,7.707
2023-05-14T01:45:34.885Z,7.699
2023-05-14T01:46:35.374Z,7.648
2023-05-14T01:47:35.080Z,7.675
2023-05-14T01:48:35.644Z,7.680
2023-05-14T01:49:34.730Z,7.696
2023-05-14T01:50:35.095Z,7.704
2023-05-14T01:51:35.325Z,7.702
2023-05-14T01:52:35.503Z,7.707
2023-05-14T01:53:36.045Z,7.712
2023-05-14T01:54:36.043Z,7.696
2023-05-14T01:55:35.345Z,7.702
2023-05-14T01:56:35.506Z,7.704
2023-05-14T01:58:34.942Z,7.712
2023-05-14T01:59:35.176Z,7.768
2023-05-14T02:00:35.717Z,7.758
2023-05-14T02:01:34.917Z,7.752
2023-05-14T02:02:35.988Z,7.782
2023-05-14T02:03:36.021Z,7.795
2023-05-14T02:04:35.718Z,7.814
2023-05-14T02:05:35.084Z,7.848
2023-05-14T02:06:36.217Z,7.873
2023-05-14T02:07:35.462Z,7.883
2023-05-14T02:08:35.657Z,7.873
2023-05-14T02:09:34.884Z,7.873
2023-05-14T02:10:35.516Z,7.929
2023-05-14T02:11:34.765Z,7.921
2023-05-14T02:12:34.925Z,7.926
2023-05-14T02:13:35.095Z,8.001
2023-05-14T02:14:35.819Z,7.995
2023-05-14T02:15:35.084Z,8.027
2023-05-14T02:16:36.191Z,8.057
2023-05-14T02:17:35.676Z,8.083
2023-05-14T02:20:34.892Z,8.142
2023-05-14T02:21:35.005Z,8.180
2023-05-14T02:22:35.153Z,8.198
2023-05-14T02:23:45.138Z,8.201
2023-05-14T02:24:35.635Z,8.156
2023-05-14T02:25:34.798Z,8.164
2023-05-14T02:26:35.824Z,8.182
2023-05-14T02:27:35.009Z,8.198
2023-05-14T02:28:35.179Z,8.214
2023-05-14T02:29:35.387Z,8.252
2023-05-14T02:30:35.631Z,8.228
2023-05-14T02:31:35.090Z,8.209
2023-05-14T02:32:36.363Z,8.252
2023-05-14T02:33:35.255Z,8.252
2023-05-14T02:34:34.705Z,8.268
2023-05-14T02:35:35.018Z,8.284
2023-05-14T02:36:35.249Z,8.249
2023-05-14T02:37:35.746Z,8.308
2023-05-14T02:38:34.958Z,8.257
2023-05-14T02:39:35.182Z,8.270
2023-05-14T02:41:35.110Z,8.270
2023-05-14T02:42:36.221Z,8.321
2023-05-14T02:43:35.375Z,8.308
2023-05-14T02:44:35.568Z,8.332
2023-05-14T02:45:34.758Z,8.302
2023-05-14T02:46:35.172Z,8.401
2023-05-14T02:47:37.784Z,8.401
2023-05-14T02:48:35.639Z,8.401
2023-05-14T02:49:34.830Z,8.380
2023-05-14T02:50:35.783Z,8.468
2023-05-14T02:51:34.940Z,8.396
2023-05-14T02:52:35.260Z,8.417
2023-05-14T02:53:36.011Z,8.423
2023-05-14T02:54:36.041Z,8.428
2023-05-14T02:55:35.241Z,8.401
2023-05-14T02:56:35.473Z,8.457
2023-05-14T02:57:35.634Z,8.425
2023-05-14T02:58:34.847Z,8.423
2023-05-14T02:59:36.422Z,8.409
2023-05-14T03:00:36.151Z,8.393
2023-05-14T03:01:36.669Z,8.404
2023-05-14T03:02:36.375Z,8.353
2023-05-14T03:03:36.525Z,8.383
2023-05-14T03:04:35.851Z,8.428
2023-05-14T03:05:35.002Z,8.447
2023-05-14T03:06:35.261Z,8.465
2023-05-14T03:07:35.554Z,8.460
2023-05-14T03:08:34.785Z,8.401
2023-05-14T03:09:36.059Z,8.433
2023-05-14T03:10:35.679Z,8.457
2023-05-14T03:11:34.816Z,8.439
2023-05-14T03:12:35.052Z,8.455
2023-05-14T03:13:35.271Z,8.444
2023-05-14T03:14:35.750Z,8.396
2023-05-14T03:15:35.076Z,8.385
2023-05-14T03:16:36.159Z,8.463
2023-05-14T03:17:35.737Z,8.484
2023-05-14T03:19:35.323Z,8.495
2023-05-14T03:20:34.725Z,8.495
2023-05-14T03:21:34.878Z,8.521
2023-05-14T03:22:35.167Z,8.545
2023-05-14T03:23:35.434Z,8.585
2023-05-14T03:24:35.677Z,8.588
2023-05-14T03:25:34.846Z,8.575
2023-05-14T03:26:35.105Z,8.572
2023-05-14T03:27:35.757Z,8.551
2023-05-14T03:28:34.962Z,8.556
2023-05-14T03:29:35.142Z,8.540
2023-05-14T03:30:36.008Z,8.532
2023-05-14T03:31:35.289Z,8.572
2023-05-14T03:32:36.250Z,8.556
2023-05-14T03:33:34.760Z,8.583
2023-05-14T03:34:35.029Z,8.620
2023-05-14T03:35:35.346Z,8.615
2023-05-14T03:36:35.497Z,8.655
2023-05-14T03:37:34.651Z,8.612
2023-05-14T03:38:34.886Z,8.615
2023-05-14T03:39:35.057Z,8.575
2023-05-14T03:40:35.757Z,8.543
2023-05-14T03:41:35.003Z,8.548
2023-05-14T03:42:35.190Z,8.556
2023-05-14T03:43:35.355Z,8.537
2023-05-14T03:45:34.928Z,8.596
2023-05-14T03:46:35.124Z,8.636
2023-05-14T03:47:35.535Z,8.674
2023-05-14T03:48:35.073Z,8.695
2023-05-14T03:49:35.513Z,8.620
2023-05-14T03:50:34.706Z,8.628
2023-05-14T03:51:34.901Z,8.631
2023-05-14T03:52:35.227Z,8.647
2023-05-14T03:53:35.580Z,8.620
2023-05-14T03:54:34.790Z,8.679
2023-05-14T03:55:35.200Z,8.711
2023-05-14T03:56:36.058Z,8.692
2023-05-14T03:57:35.230Z,8.676
2023-05-14T03:58:35.371Z,8.620
2023-05-14T03:59:35.556Z,8.660
2023-05-14T04:00:34.831Z,8.692
2023-05-14T04:01:35.051Z,8.666
2023-05-14T04:02:35.806Z,8.663
2023-05-14T04:03:36.334Z,8.676
2023-05-14T04:04:35.782Z,8.706
2023-05-14T04:05:35.161Z,8.740
2023-05-14T04:06:35.840Z,8.770
2023-05-14T04:07:34.978Z,8.770
2023-05-14T04:08:35.085Z,8.780
2023-05-14T04:09:35.317Z,8.802
2023-05-14T04:10:35.577Z,8.810
2023-05-14T04:11:34.701Z,8.839
2023-05-14T04:12:34.861Z,8.871
2023-05-14T04:13:35.081Z,8.882
2023-05-14T04:14:35.223Z,8.871
2023-05-14T04:15:35.596Z,8.925
2023-05-14T04:16:35.006Z,8.927
2023-05-14T04:17:37.774Z,8.954
2023-05-14T04:18:35.327Z,8.989
2023-05-14T04:19:34.737Z,9.023
2023-05-14T04:20:35.197Z,9.002
2023-05-14T04:21:35.599Z,9.018
2023-05-14T04:22:34.730Z,9.031
2023-05-14T04:23:34.887Z,9.023
2023-05-14T04:24:35.071Z,9.037
2023-05-14T04:25:35.338Z,9.088
2023-05-14T04:26:35.572Z,9.133
2023-05-14T04:27:34.712Z,9.160
2023-05-14T04:28:34.907Z,9.181
2023-05-14T04:29:35.168Z,9.181
2023-05-14T04:30:35.860Z,9.253
2023-05-14T04:31:35.186Z,9.288
2023-05-14T04:32:36.147Z,9.331
2023-05-14T04:33:35.426Z,9.363
2023-05-14T04:34:35.664Z,9.491
2023-05-14T04:35:34.853Z,9.624
2023-05-14T04:36:35.091Z,9.696
2023-05-14T04:37:35.306Z,9.691
2023-05-14T04:38:35.519Z,9.688
2023-05-14T04:39:34.682Z,9.691
2023-05-14T04:40:35.580Z,9.648
2023-05-14T04:41:34.745Z,9.659
2023-05-14T04:42:34.960Z,9.667
2023-05-14T04:43:35.142Z,9.664
2023-05-14T04:44:35.345Z,9.704
2023-05-14T04:45:38.840Z,9.739
2023-05-14T04:46:36.193Z,9.779
2023-05-14T04:47:35.551Z,9.817
2023-05-14T04:48:34.794Z,9.886
2023-05-14T04:49:35.003Z,9.950
2023-05-14T04:50:35.465Z,10.022
2023-05-14T04:51:35.679Z,10.073
2023-05-14T04:52:34.829Z,10.180
2023-05-14T04:53:34.991Z,10.249
2023-05-14T04:54:35.873Z,10.345
2023-05-14T04:55:35.317Z,10.436
2023-05-14T04:56:35.467Z,10.567
2023-05-14T04:57:35.944Z,10.658
2023-05-14T04:58:37.716Z,10.783
2023-05-14T04:59:34.982Z,10.845
2023-05-14T05:00:36.229Z,10.941
2023-05-14T05:01:35.736Z,10.925
2023-05-14T05:03:35.944Z,10.871
2023-05-14T05:04:35.188Z,10.879
2023-05-14T05:05:35.574Z,10.882
2023-05-14T05:06:34.775Z,10.831
2023-05-14T05:07:34.930Z,10.815
2023-05-14T05:08:35.179Z,10.772
2023-05-14T05:09:35.353Z,10.740
2023-05-14T05:10:36.020Z,10.674
2023-05-14T05:11:35.240Z,10.762
2023-05-14T05:13:35.651Z,11.237
2023-05-14T05:14:34.831Z,11.520
2023-05-14T05:15:35.018Z,11.606
2023-05-14T05:16:37.037Z,11.881
2023-05-14T05:17:35.296Z,11.982
2023-05-14T05:18:34.963Z,12.140
2023-05-14T05:19:47.153Z,12.319
2023-05-14T05:20:35.297Z,12.319
2023-05-14T05:21:35.842Z,12.735
2023-05-14T05:22:35.023Z,12.925
2023-05-14T05:23:35.256Z,12.970
2023-05-14T05:24:35.429Z,12.989
2023-05-14T05:25:35.631Z,13.157
2023-05-14T05:26:34.815Z,13.443
2023-05-14T05:27:35.004Z,13.502
2023-05-14T05:28:35.182Z,13.096
2023-05-14T05:29:35.505Z,12.951
2023-05-14T05:30:34.659Z,13.029
2023-05-14T05:31:35.313Z,12.850
2023-05-14T05:32:35.809Z,12.802
2023-05-14T05:33:35.147Z,12.615
2023-05-14T05:34:35.350Z,12.823
2023-05-14T05:35:35.637Z,13.042
2023-05-14T05:36:34.824Z,13.066
2023-05-14T05:37:34.996Z,13.259
2023-05-14T05:38:35.186Z,13.448
2023-05-14T05:39:35.459Z,13.702
2023-05-14T05:40:35.702Z,13.504
2023-05-14T05:41:34.895Z,13.996
2023-05-14T05:42:38.093Z,14.436
2023-05-14T05:43:38.607Z,14.730
2023-05-14T05:44:37.804Z,14.887
2023-05-14T05:45:38.020Z,15.093
2023-05-14T05:46:39.099Z,14.644
2023-05-14T05:49:38.467Z,14.978
2023-05-14T05:50:37.983Z,15.328
2023-05-14T05:51:38.180Z,15.542
2023-05-14T05:52:39.017Z,15.237
2023-05-14T05:53:38.142Z,15.734
2023-05-14T05:55:35.541Z,15.349
2023-05-14T05:56:34.816Z,15.328
2023-05-14T05:57:35.004Z,15.510
2023-05-14T05:58:35.215Z,14.538
2023-05-14T05:59:35.839Z,14.778
2023-05-14T06:00:35.020Z,15.459
2023-05-14T06:01:35.287Z,15.267
2023-05-14T06:02:36.463Z,14.858
2023-05-14T06:03:35.569Z,14.620
2023-05-14T06:04:34.732Z,14.380
2023-05-14T06:05:35.144Z,14.391
2023-05-14T06:06:35.808Z,14.607
2023-05-14T06:07:34.999Z,14.594
2023-05-14T06:08:35.225Z,14.303
2023-05-14T06:09:35.650Z,13.921
2023-05-14T06:10:35.039Z,14.212
2023-05-14T06:11:35.192Z,14.313
2023-05-14T06:12:35.363Z,14.703
2023-05-14T06:13:35.528Z,14.911
2023-05-14T06:14:34.709Z,14.647
2023-05-14T06:15:34.887Z,15.216
2023-05-14T06:16:35.268Z,15.414
2023-05-14T06:17:35.945Z,15.889
2023-05-14T06:18:35.612Z,15.787
2023-05-14T06:19:35.033Z,14.895
2023-05-14T06:20:35.642Z,14.599
2023-05-14T06:21:34.788Z,14.893
2023-05-14T06:22:35.034Z,15.120
2023-05-14T06:23:35.420Z,15.571
2023-05-14T06:24:34.676Z,15.000
2023-05-14T06:25:34.943Z,14.807
2023-05-14T06:26:35.149Z,14.949
2023-05-14T06:27:35.375Z,14.546
2023-05-14T06:28:35.606Z,14.260
2023-05-14T06:29:34.844Z,14.439
2023-05-14T06:30:35.338Z,14.666
2023-05-14T06:31:35.787Z,14.949
2023-05-14T06:32:35.380Z,15.168
2023-05-14T06:33:34.721Z,15.435
2023-05-14T06:34:34.862Z,15.181
2023-05-14T06:35:35.054Z,15.323
2023-05-14T06:36:35.246Z,14.911
2023-05-14T06:37:35.361Z,14.554
2023-05-14T06:38:35.585Z,14.297
2023-05-14T06:40:35.273Z,14.044
2023-05-14T06:41:35.540Z,13.958
2023-05-14T06:42:34.694Z,13.721
2023-05-14T06:43:34.925Z,13.611
2023-05-14T06:44:35.126Z,13.654
2023-05-14T06:45:38.198Z,13.494
2023-05-14T06:48:35.527Z,13.667
2023-05-14T06:49:34.755Z,13.686
2023-05-14T06:50:35.072Z,13.592
2023-05-14T06:51:35.250Z,13.715
2023-05-14T06:52:35.469Z,13.779
2023-05-14T06:53:35.719Z,13.790
2023-05-14T06:54:34.895Z,14.012
2023-05-14T06:55:35.074Z,13.972
2023-05-14T06:56:35.324Z,14.126
2023-05-14T06:57:35.584Z,14.201
2023-05-14T06:58:35.436Z,14.105
2023-05-14T06:59:35.780Z,14.030
2023-05-14T07:00:35.016Z,14.150
2023-05-14T07:01:35.617Z,14.391
2023-05-14T07:02:35.197Z,14.121
2023-05-14T07:03:36.080Z,14.076
2023-05-14T07:04:35.397Z,14.182
2023-05-14T07:07:35.464Z,14.070
2023-05-14T07:08:34.758Z,14.105
2023-05-14T07:09:34.981Z,14.391
2023-05-14T07:10:35.660Z,14.324
2023-05-14T07:11:34.783Z,14.377
2023-05-14T07:12:35.007Z,14.532
2023-05-14T07:13:37.856Z,14.746
2023-05-14T07:14:34.967Z,14.823
2023-05-14T07:15:35.198Z,14.992
2023-05-14T07:16:35.571Z,15.483
2023-05-14T07:17:35.145Z,15.675
2023-05-14T07:18:35.696Z,15.542
2023-05-14T07:19:35.010Z,15.269
2023-05-14T07:20:35.661Z,15.048
2023-05-14T07:21:34.805Z,15.406
2023-05-14T07:22:35.045Z,15.419
2023-05-14T07:23:35.183Z,15.673
2023-05-14T07:24:35.255Z,15.507
2023-05-14T07:25:35.909Z,15.598
2023-05-14T07:26:35.070Z,15.547
2023-05-14T07:27:35.442Z,15.624
2023-05-14T07:28:36.077Z,15.520
2023-05-14T07:29:35.250Z,15.470
2023-05-14T07:30:35.678Z,15.713
2023-05-14T07:31:36.017Z,15.163
2023-05-14T07:32:36.163Z,14.757
2023-05-14T07:33:34.825Z,14.644
2023-05-14T07:34:34.947Z,14.455
2023-05-14T07:35:35.108Z,14.725
2023-05-14T07:36:35.408Z,15.072
2023-05-14T07:37:35.876Z,14.965
2023-05-14T07:38:35.024Z,14.938
2023-05-14T07:39:35.223Z,14.767
2023-05-14T07:40:36.103Z,14.765
2023-05-14T07:41:35.325Z,14.989
2023-05-14T07:42:40.402Z,15.002
2023-05-14T07:45:35.113Z,14.620
2023-05-14T07:46:35.383Z,14.831
2023-05-14T07:47:36.367Z,14.978
2023-05-14T07:48:35.285Z,14.826
2023-05-14T07:49:34.687Z,14.647
2023-05-14T07:50:35.227Z,14.751
2023-05-14T07:51:35.486Z,14.997
2023-05-14T07:52:35.768Z,14.965
2023-05-14T07:53:34.983Z,14.570
2023-05-14T07:54:35.201Z,14.583
2023-05-14T07:55:36.044Z,14.618
2023-05-14T07:56:35.221Z,14.746
2023-05-14T07:57:35.399Z,14.783
2023-05-14T07:58:35.723Z,14.559
2023-05-14T07:59:34.962Z,14.693
2023-05-14T08:00:35.162Z,14.401
2023-05-14T08:01:36.359Z,14.455
2023-05-14T08:02:35.538Z,14.757
2023-05-14T08:03:35.405Z,14.498
2023-05-14T08:04:35.533Z,14.674
2023-05-14T08:05:34.894Z,14.802
2023-05-14T08:06:35.106Z,14.719
2023-05-14T08:07:35.346Z,14.733
2023-05-14T08:08:36.044Z,14.853
2023-05-14T08:09:35.192Z,14.994
2023-05-14T08:10:36.416Z,14.628
2023-05-14T08:11:34.771Z,14.351
2023-05-14T08:12:35.007Z,14.132
2023-05-14T08:13:35.182Z,14.415
2023-05-14T08:14:35.383Z,14.182
2023-05-14T08:15:37.087Z,14.474
2023-05-14T08:16:36.217Z,14.217
2023-05-14T08:17:36.177Z,14.340
2023-05-14T08:18:36.168Z,14.004
2023-05-14T08:19:35.434Z,13.956
2023-05-14T08:20:36.037Z,14.359
2023-05-14T08:21:35.267Z,14.423
2023-05-14T08:22:35.474Z,14.644
2023-05-14T08:23:34.650Z,14.129
2023-05-14T08:24:34.815Z,14.060
2023-05-14T08:25:35.199Z,13.964
2023-05-14T08:26:35.390Z,13.918
2023-05-14T08:27:35.652Z,14.054
2023-05-14T08:28:34.807Z,14.041
2023-05-14T08:29:35.001Z,14.327
2023-05-14T08:30:35.931Z,14.399
2023-05-14T08:31:35.458Z,14.543
2023-05-14T08:32:36.144Z,14.516
2023-05-14T08:33:35.589Z,14.041
2023-05-14T08:35:34.631Z,14.105
2023-05-14T08:36:34.815Z,14.121
2023-05-14T08:37:35.058Z,14.538
2023-05-14T08:38:35.244Z,14.650
2023-05-14T08:39:35.497Z,14.757
2023-05-14T08:40:34.718Z,14.562
2023-05-14T08:41:34.944Z,14.540
2023-05-14T08:42:35.138Z,14.538
2023-05-14T08:43:35.379Z,14.401
2023-05-14T08:44:36.077Z,14.380
2023-05-14T08:45:35.284Z,14.252
2023-05-14T08:46:35.540Z,14.276
2023-05-14T08:47:34.913Z,14.343
2023-05-14T08:48:35.624Z,14.303
2023-05-14T08:49:35.016Z,14.263
2023-05-14T08:51:35.721Z,14.618
2023-05-14T08:52:34.953Z,14.682
2023-05-14T08:53:35.239Z,14.527
2023-05-14T08:54:35.408Z,14.391
2023-05-14T08:55:35.682Z,14.217
2023-05-14T08:57:35.112Z,14.164
2023-05-14T08:58:35.319Z,14.367
2023-05-14T08:59:35.646Z,14.639
2023-05-14T09:00:34.786Z,14.417
2023-05-14T09:01:35.099Z,14.385
2023-05-14T09:02:36.016Z,14.313
2023-05-14T09:03:35.623Z,14.359
2023-05-14T09:04:35.133Z,14.572
2023-05-14T09:05:35.393Z,14.295
2023-05-14T09:06:35.660Z,14.516
2023-05-14T09:07:34.883Z,14.636
2023-05-14T09:08:35.094Z,14.575
2023-05-14T09:09:35.285Z,14.749
2023-05-14T09:10:36.114Z,14.559
2023-05-14T09:11:35.309Z,14.313
2023-05-14T09:12:35.628Z,14.335
2023-05-14T09:13:34.845Z,14.938
2023-05-14T09:14:35.022Z,15.048
2023-05-14T09:15:35.894Z,15.435
2023-05-14T09:16:35.449Z,15.365
2023-05-14T09:17:35.028Z,15.531
2023-05-14T09:18:35.558Z,15.467
2023-05-14T09:21:38.517Z,15.448
2023-05-14T09:24:35.142Z,15.347
2023-05-14T09:25:35.304Z,15.320
2023-05-14T09:26:35.557Z,14.997
2023-05-14T09:27:34.768Z,15.368
2023-05-14T09:28:35.010Z,15.932
2023-05-14T09:29:35.242Z,15.929
2023-05-14T09:30:35.810Z,15.771
2023-05-14T09:31:35.240Z,15.803
2023-05-14T09:32:35.695Z,15.381
2023-05-14T09:33:35.087Z,15.275
2023-05-14T09:34:35.380Z,15.459
2023-05-14T09:35:36.129Z,15.029
2023-05-14T09:36:35.302Z,15.061
2023-05-14T09:37:35.451Z,14.885
2023-05-14T09:38:35.713Z,15.130
2023-05-14T09:39:34.899Z,15.360
2023-05-14T09:40:35.323Z,15.293
2023-05-14T09:41:35.540Z,15.315
2023-05-14T09:42:34.714Z,15.611
2023-05-14T09:43:34.925Z,15.352
2023-05-14T09:44:35.203Z,15.908
2023-05-14T09:45:35.355Z,15.758
2023-05-14T09:46:35.590Z,15.456
2023-05-14T09:48:35.519Z,16.241
2023-05-14T09:49:34.821Z,16.426
2023-05-14T09:50:35.659Z,16.749
2023-05-14T09:51:34.825Z,17.026
2023-05-14T09:52:35.010Z,17.085
2023-05-14T09:53:35.464Z,17.486
2023-05-14T09:54:35.775Z,17.253
2023-05-14T09:55:34.989Z,17.139
2023-05-14T09:56:35.207Z,17.208
2023-05-14T09:57:35.399Z,17.427
2023-05-14T09:58:35.672Z,16.920
2023-05-14T09:59:34.823Z,16.920
2023-05-14T10:00:35.020Z,16.890
2023-05-14T10:01:35.451Z,16.639
2023-05-14T10:02:34.945Z,16.893
2023-05-14T10:03:35.620Z,17.675
2023-05-14T10:04:35.155Z,17.382
2023-05-14T10:05:35.512Z,16.698
2023-05-14T10:06:34.677Z,16.823
2023-05-14T10:07:34.890Z,16.500
2023-05-14T10:08:35.061Z,17.416
2023-05-14T10:09:35.435Z,18.161
2023-05-14T10:10:36.560Z,18.073
2023-05-14T10:11:34.824Z,18.554
2023-05-14T10:12:35.025Z,18.586
2023-05-14T10:13:35.269Z,17.747
2023-05-14T10:14:35.643Z,17.969
2023-05-14T10:15:34.826Z,18.634
2023-05-14T10:16:35.355Z,19.125
2023-05-14T10:17:34.944Z,18.778
2023-05-14T10:18:35.664Z,18.260
2023-05-14T10:19:35.220Z,18.789
2023-05-14T10:20:35.779Z,18.503
2023-05-14T10:21:34.970Z,18.904
2023-05-14T10:22:35.158Z,18.052
2023-05-14T10:23:35.391Z,18.124
2023-05-14T10:24:34.809Z,18.621
2023-05-14T10:25:34.987Z,18.551
2023-05-14T10:26:35.173Z,18.522
2023-05-14T10:27:35.390Z,17.606
2023-05-14T10:28:35.603Z,18.581
2023-05-14T10:29:34.717Z,18.284
2023-05-14T10:30:35.282Z,17.966
2023-05-14T10:31:36.370Z,17.827
2023-05-14T10:32:34.886Z,17.998
2023-05-14T10:33:35.384Z,18.127
2023-05-14T10:34:35.615Z,18.033
2023-05-14T10:35:34.771Z,18.655
2023-05-14T10:36:34.956Z,18.810
2023-05-14T10:37:35.178Z,18.447
2023-05-14T10:38:35.423Z,18.426
2023-05-14T10:39:35.655Z,17.742
2023-05-14T10:40:34.839Z,18.295
2023-05-14T10:41:35.019Z,17.996
2023-05-14T10:42:35.195Z,17.742
2023-05-14T10:43:35.380Z,18.183
2023-05-14T10:44:35.634Z,18.044
2023-05-14T10:45:34.789Z,18.215
2023-05-14T10:46:35.235Z,18.404
2023-05-14T10:47:36.085Z,18.135
2023-05-14T10:48:35.371Z,18.201
2023-05-14T10:49:45.434Z,17.926
2023-05-14T10:51:35.293Z,17.512
2023-05-14T10:52:34.861Z,17.528
2023-05-14T10:53:35.074Z,17.235
2023-05-14T10:54:35.289Z,17.317
2023-05-14T10:55:35.522Z,17.058
2023-05-14T10:56:35.675Z,17.016
2023-05-14T10:57:35.032Z,17.165
2023-05-14T10:58:35.208Z,16.882
2023-05-14T10:59:35.418Z,17.277
2023-05-14T11:01:35.447Z,18.081
2023-05-14T11:02:34.833Z,18.431
2023-05-14T11:03:35.630Z,17.969
2023-05-14T11:04:35.139Z,17.563
2023-05-14T11:05:35.328Z,18.183
2023-05-14T11:06:35.539Z,18.062
2023-05-14T11:07:34.758Z,17.793
2023-05-14T11:08:34.989Z,17.897
2023-05-14T11:09:35.322Z,17.643
2023-05-14T11:10:35.520Z,17.288
2023-05-14T11:11:34.730Z,17.753
2023-05-14T11:12:34.909Z,18.394
2023-05-14T11:13:35.167Z,19.179
2023-05-14T11:14:35.338Z,20.276
2023-05-14T11:15:35.517Z,21.395
2023-05-14T11:16:34.784Z,21.710
2023-05-14T11:17:35.297Z,21.961
2023-05-14T11:18:34.914Z,20.439
2023-05-14T11:19:35.435Z,19.659
2023-05-14T11:20:36.180Z,19.651
2023-05-14T11:22:35.147Z,19.537
2023-05-14T11:23:35.426Z,19.961
2023-05-14T11:24:35.747Z,19.518
2023-05-14T11:25:34.902Z,19.876
2023-05-14T11:26:35.289Z,19.697
2023-05-14T11:27:35.984Z,20.340
2023-05-14T11:28:35.206Z,19.852
2023-05-14T11:29:35.383Z,19.603
2023-05-14T11:30:36.036Z,19.291
2023-05-14T11:31:35.282Z,18.912
2023-05-14T11:32:35.889Z,18.997
2023-05-14T11:33:35.502Z,18.613
2023-05-14T11:34:35.681Z,18.946
2023-05-14T11:35:35.005Z,19.125
2023-05-14T11:36:35.168Z,18.799
2023-05-14T11:37:35.340Z,18.420
2023-05-14T11:38:35.536Z,19.339
2023-05-14T11:39:34.697Z,19.318
2023-05-14T11:40:35.229Z,18.802
2023-05-14T11:41:35.433Z,18.888
2023-05-14T11:42:35.666Z,19.109
2023-05-14T11:43:34.921Z,19.203
2023-05-14T11:44:35.168Z,18.898
2023-05-14T11:45:35.387Z,18.482
2023-05-14T11:46:35.971Z,18.586
2023-05-14T11:47:36.088Z,18.396
2023-05-14T11:48:35.884Z,18.698
2023-05-14T11:49:35.107Z,18.167
2023-05-14T11:50:35.675Z,18.196
2023-05-14T11:53:35.334Z,18.901
2023-05-14T11:54:35.651Z,18.845
2023-05-14T11:55:34.830Z,19.077
2023-05-14T11:56:35.067Z,19.056
2023-05-14T11:57:35.305Z,18.570
2023-05-14T11:58:35.535Z,19.259
2023-05-14T11:59:34.726Z,19.558
2023-05-14T12:00:34.940Z,19.651
2023-05-14T12:01:35.196Z,19.833
2023-05-14T12:02:35.874Z,19.456
2023-05-14T12:03:36.674Z,19.272
2023-05-14T12:04:35.555Z,19.587
2023-05-14T12:05:35.073Z,19.347
2023-05-14T12:06:35.288Z,19.195
2023-05-14T12:07:35.530Z,19.133
2023-05-14T12:08:34.711Z,18.938
2023-05-14T12:09:34.885Z,18.840
2023-05-14T12:10:35.646Z,18.613
2023-05-14T12:11:34.808Z,18.468
2023-05-14T12:12:35.022Z,18.330
2023-05-14T12:13:35.385Z,18.885
2023-05-14T12:14:35.607Z,18.658
2023-05-14T12:15:34.779Z,18.559
2023-05-14T12:16:38.505Z,18.249
2023-05-14T12:18:35.503Z,18.233
2023-05-14T12:19:35.550Z,18.084
2023-05-14T12:20:34.722Z,18.380
2023-05-14T12:21:34.906Z,18.813
2023-05-14T12:22:36.839Z,18.570
2023-05-14T12:23:35.439Z,19.032
2023-05-14T12:24:35.704Z,18.589
2023-05-14T12:25:34.955Z,18.583
2023-05-14T12:26:35.142Z,18.719
2023-05-14T12:27:35.507Z,18.765
2023-05-14T12:28:37.634Z,18.767
2023-05-14T12:29:34.689Z,19.091
2023-05-14T12:30:35.038Z,19.195
2023-05-14T12:31:35.673Z,19.056
2023-05-14T12:32:35.170Z,19.355
2023-05-14T12:33:35.633Z,19.168
2023-05-14T12:34:35.944Z,19.480
2023-05-14T12:35:35.932Z,19.163
2023-05-14T12:36:35.166Z,19.574
2023-05-14T12:37:36.498Z,19.953
2023-05-14T12:38:34.786Z,20.135
2023-05-14T12:39:35.226Z,20.781
2023-05-14T12:40:35.786Z,19.780
2023-05-14T12:41:34.977Z,20.079
2023-05-14T12:42:35.177Z,20.322
2023-05-14T12:43:35.438Z,20.175
2023-05-14T12:44:35.670Z,20.490
2023-05-14T12:45:34.919Z,20.645
2023-05-14T12:46:35.383Z,22.137
2023-05-14T12:47:34.954Z,21.622
2023-05-14T12:48:35.617Z,22.458
2023-05-14T12:49:34.774Z,21.804
2023-05-14T12:50:35.360Z,21.299
2023-05-14T12:51:35.519Z,21.619
2023-05-14T12:52:42.599Z,22.159
2023-05-14T12:54:34.965Z,21.024
2023-05-14T12:55:35.190Z,20.460
2023-05-14T12:56:35.346Z,21.075
2023-05-14T12:57:35.817Z,20.808
2023-05-14T12:58:35.405Z,20.514
2023-05-14T12:59:34.875Z,20.033
2023-05-14T13:00:35.558Z,19.982
2023-05-14T13:01:35.202Z,20.180
2023-05-14T13:03:34.950Z,20.089
2023-05-14T13:04:35.608Z,20.858
2023-05-14T13:05:35.039Z,20.239
2023-05-14T13:06:35.307Z,19.836
2023-05-14T13:07:35.595Z,19.667
2023-05-14T13:08:34.823Z,20.845
2023-05-14T13:09:35.486Z,21.371
2023-05-14T13:10:35.703Z,21.326
2023-05-14T13:11:34.856Z,20.311
2023-05-14T13:12:35.112Z,19.932
2023-05-14T13:13:35.399Z,20.338
2023-05-14T13:14:35.754Z,20.912
2023-05-14T13:15:34.915Z,21.112
2023-05-14T13:16:35.291Z,21.534
2023-05-14T13:17:36.057Z,20.786
2023-05-14T13:18:35.580Z,21.342
2023-05-14T13:19:35.199Z,19.916
2023-05-14T13:20:34.744Z,19.651
2023-05-14T13:21:35.047Z,19.545
2023-05-14T13:22:35.459Z,19.804